Time;durP1;ratioP1;P1;durP2;ratioP2;P2;SDS_P1;SDS_P2;PMS_P1;PMS_P2;Temp;Humidity;BMP_temperature;BMP_pressure;BME280_temperature;BME280_humidity;BME280_pressure;Samples;Min_cycle;Max_cycle;Signal;HPM_P1;HPM_P2
2022/04/26 03:38:43;;;;;;;9.37;8.67;;;;;;;12.61;86.27;94947.41;4379669;32;20211;-58
2022/04/26 03:41:09;;;;;;;9.90;9.20;;;;;;;12.51;86.30;94944.28;4347660;32;20181;-57
2022/04/26 03:43:34;;;;;;;11.43;10.57;;;;;;;12.44;86.28;94954.63;4372496;32;20176;-57
2022/04/26 03:46:03;;;;;;;9.80;9.10;;;;;;;12.51;86.14;94950.38;4399427;32;20225;-57
2022/04/26 03:48:28;;;;;;;9.60;8.90;;;;;;;12.65;86.09;94951.00;4388595;32;20184;-58
2022/04/26 03:50:53;;;;;;;10.03;9.23;;;;;;;12.46;87.26;94953.22;4366577;32;20187;-58
2022/04/26 03:53:19;;;;;;;8.63;7.93;;;;;;;12.52;87.12;94956.47;4390616;32;20177;-58
2022/04/26 03:55:46;;;;;;;10.23;9.23;;;;;;;12.49;87.33;94949.13;4390468;32;20225;-58
2022/04/26 03:58:11;;;;;;;10.13;9.33;;;;;;;12.34;87.49;94953.03;4370253;32;20196;-57
2022/04/26 04:00:38;;;;;;;8.93;8.23;;;;;;;12.59;86.35;94951.47;4382788;32;20192;-58
2022/04/26 04:03:04;;;;;;;9.57;8.77;;;;;;;12.67;85.85;94958.69;4352293;32;20184;-58
2022/04/26 04:05:30;;;;;;;8.87;8.23;;;;;;;12.48;85.73;94955.53;4341140;32;20312;-58
2022/04/26 04:07:56;;;;;;;9.20;8.60;;;;;;;12.56;86.40;94954.75;4389980;32;20180;-59
2022/04/26 04:10:22;;;;;;;9.57;8.73;;;;;;;12.54;86.12;94956.94;4389306;32;20216;-58
2022/04/26 04:12:48;;;;;;;9.87;8.90;;;;;;;12.47;86.79;94960.06;4390670;32;20307;-59
2022/04/26 04:15:14;;;;;;;9.80;9.00;;;;;;;12.44;86.44;94959.94;4393432;32;20257;-57
2022/04/26 04:17:40;;;;;;;9.80;9.00;;;;;;;12.23;87.65;94951.81;4390934;32;20180;-57
2022/04/26 04:20:06;;;;;;;11.10;10.20;;;;;;;12.53;86.76;94960.72;4392066;32;20177;-58
2022/04/26 04:22:32;;;;;;;10.90;9.97;;;;;;;12.74;85.52;94958.97;4387387;32;20184;-58
2022/04/26 04:24:58;;;;;;;9.33;8.63;;;;;;;12.77;85.24;94961.00;4365259;32;20444;-58
2022/04/26 04:27:25;;;;;;;9.40;8.70;;;;;;;12.55;86.35;94969.16;4377801;32;20206;-58
2022/04/26 04:33:12;;;;;;;8.40;7.80;;;;;;;12.57;85.93;94966.97;4365716;32;20210;-59
2022/04/26 04:35:38;;;;;;;10.47;9.47;;;;;;;12.67;85.78;94961.34;4367216;32;20188;-58
2022/04/26 04:38:04;;;;;;;9.60;8.90;;;;;;;12.75;85.03;94976.50;4366546;32;20231;-58
2022/04/26 04:40:29;;;;;;;10.27;9.47;;;;;;;12.69;85.19;94967.88;4391307;32;20200;-57
2022/04/26 04:42:55;;;;;;;10.73;9.67;;;;;;;12.69;84.98;94980.41;4397278;32;20221;-58
2022/04/26 04:45:21;;;;;;;9.63;8.87;;;;;;;12.61;85.46;94983.88;4363734;32;20180;-58
2022/04/26 04:47:46;;;;;;;10.20;9.33;;;;;;;12.34;87.08;94987.63;4346994;32;20244;-58
2022/04/26 04:50:13;;;;;;;9.27;8.57;;;;;;;12.52;86.76;94988.41;4377957;32;20192;-58
2022/04/26 04:52:39;;;;;;;9.37;8.67;;;;;;;12.55;86.13;94985.91;4367662;32;20199;-60
2022/04/26 04:55:08;;;;;;;9.50;8.80;;;;;;;12.67;85.86;94988.75;4382886;32;20176;-58
2022/04/26 04:57:34;;;;;;;10.27;9.50;;;;;;;12.43;86.78;94987.66;4340667;32;20204;-59
2022/04/26 05:00:02;;;;;;;10.63;9.73;;;;;;;12.67;85.92;94987.97;4375324;32;20305;-58
2022/04/26 05:02:29;;;;;;;10.33;9.50;;;;;;;12.71;85.43;94989.66;4390190;32;20271;-59
2022/04/26 05:04:55;;;;;;;10.17;9.13;;;;;;;12.76;85.46;94996.69;4382038;32;20189;-59
2022/04/26 05:07:22;;;;;;;12.07;8.37;;;;;;;12.84;85.03;94992.47;4389423;32;20228;-59
2022/04/26 05:09:47;;;;;;;13.30;8.83;;;;;;;12.76;85.34;94996.69;4356920;32;20191;-59
2022/04/26 05:12:13;;;;;;;14.70;9.37;;;;;;;12.55;85.97;95001.09;4391990;32;20222;-59
2022/04/26 05:14:40;;;;;;;9.63;8.73;;;;;;;12.80;85.27;94997.62;4392179;32;20228;-59
2022/04/26 05:17:05;;;;;;;16.33;8.80;;;;;;;12.78;85.40;94999.84;4394635;32;20181;-59
2022/04/26 05:19:30;;;;;;;10.70;9.70;;;;;;;12.60;86.40;94999.06;4392198;32;20289;-59
2022/04/26 05:21:56;;;;;;;13.00;9.87;;;;;;;12.81;85.88;94993.87;4348238;32;20193;-59
2022/04/26 05:27:08;;;;;;;22.70;9.60;;;;;;;12.65;86.64;95000.78;4396185;32;20199;-58
2022/04/26 05:29:33;;;;;;;19.47;9.83;;;;;;;12.53;86.61;95001.41;4414288;32;20237;-58
2022/04/26 05:31:59;;;;;;;26.57;10.80;;;;;;;12.49;87.47;94994.34;4386188;32;20255;-58
2022/04/26 05:34:24;;;;;;;19.63;10.60;;;;;;;12.67;87.97;94993.28;4373009;32;20251;-59
2022/04/26 05:36:49;;;;;;;21.17;10.53;;;;;;;12.77;87.35;94998.25;4376713;32;20185;-58
2022/04/26 05:39:15;;;;;;;21.90;10.03;;;;;;;12.76;87.31;94999.38;4397047;32;20202;-58
2022/04/26 05:41:40;;;;;;;21.30;9.97;;;;;;;12.71;86.64;94999.50;4392600;32;20275;-58
2022/04/26 05:44:06;;;;;;;15.87;9.83;;;;;;;12.54;87.45;95000.31;4390313;32;20188;-58
2022/04/26 05:46:32;;;;;;;19.37;10.27;;;;;;;12.63;86.98;94992.34;4372925;32;20184;-58
2022/04/26 05:48:58;;;;;;;10.53;9.53;;;;;;;12.70;86.71;95003.28;4372145;32;20271;-59
2022/04/26 05:51:24;;;;;;;14.93;8.17;;;;;;;12.80;86.11;94997.62;4360857;32;20195;-59
2022/04/26 05:53:51;;;;;;;9.87;8.90;;;;;;;12.76;86.19;94999.38;4370137;32;20187;-59
2022/04/26 05:56:17;;;;;;;20.43;9.27;;;;;;;12.71;86.05;95002.97;4364075;32;20200;-59
2022/04/26 05:58:43;;;;;;;13.03;8.40;;;;;;;12.75;86.64;95003.13;4388465;32;20229;-59
2022/04/26 06:01:11;;;;;;;10.30;8.93;;;;;;;12.76;86.57;94998.59;4391042;32;20205;-59
2022/04/26 06:03:39;;;;;;;11.00;8.57;;;;;;;12.79;85.72;94995.28;4376313;32;20206;-59
2022/04/26 06:06:09;;;;;;;10.77;8.40;;;;;;;12.85;86.03;95002.03;4379810;32;20199;-59
2022/04/26 06:08:38;;;;;;;9.43;8.50;;;;;;;12.90;84.89;95002.63;4390122;32;20180;-59
2022/04/26 06:11:08;;;;;;;10.00;9.03;;;;;;;12.90;84.98;95013.28;4359308;32;20255;-59
2022/04/26 06:13:34;;;;;;;12.90;8.83;;;;;;;12.83;85.57;95009.53;4389527;32;20198;-59
2022/04/26 06:16:01;;;;;;;10.37;8.90;;;;;;;12.73;86.75;95021.28;4390064;32;20193;-59
2022/04/26 06:18:26;;;;;;;12.73;9.07;;;;;;;12.63;86.60;95014.41;4383489;32;20196;-60
2022/04/26 06:20:51;;;;;;;10.93;10.03;;;;;;;12.66;87.17;95018.31;4383213;32;20184;-59
2022/04/26 06:23:17;;;;;;;15.70;8.83;;;;;;;12.37;87.40;95016.28;4388349;32;20203;-59
2022/04/26 06:25:42;;;;;;;12.10;9.23;;;;;;;12.39;88.00;95006.88;4389044;32;20185;-59
2022/04/26 06:28:09;;;;;;;13.70;8.60;;;;;;;12.37;88.44;95014.38;4389847;32;20264;-62
2022/04/26 06:30:38;;;;;;;9.67;8.67;;;;;;;12.57;87.73;95010.31;4373377;32;20189;-59
2022/04/26 06:33:04;;;;;;;12.37;8.63;;;;;;;12.69;87.26;95007.03;4375510;32;20230;-59
2022/04/26 06:35:32;;;;;;;10.23;8.10;;;;;;;12.81;86.88;95014.41;4373370;32;20362;-60
2022/04/26 06:37:58;;;;;;;8.70;7.87;;;;;;;12.85;84.86;95010.00;4372398;32;20306;-60
2022/04/26 06:40:25;;;;;;;12.73;7.77;;;;;;;12.57;85.36;95020.19;4392002;32;20177;-59
2022/04/26 06:42:51;;;;;;;9.00;8.10;;;;;;;12.67;86.19;95009.25;4377817;32;20173;-59
2022/04/26 06:45:18;;;;;;;8.77;7.90;;;;;;;12.86;85.47;95022.22;4353238;32;20268;-59
2022/04/26 06:47:44;;;;;;;9.63;7.83;;;;;;;12.99;84.98;95015.94;4376974;32;20211;-60
2022/04/26 06:50:10;;;;;;;9.20;7.40;;;;;;;12.66;85.07;95028.97;4365519;32;20203;-59
2022/04/26 06:52:37;;;;;;;8.20;7.67;;;;;;;12.64;85.52;95020.50;4374936;32;20180;-59
2022/04/26 06:55:04;;;;;;;8.73;7.33;;;;;;;12.53;85.39;95022.69;4388251;32;20315;-60
2022/04/26 06:57:31;;;;;;;8.13;7.43;;;;;;;12.67;85.79;95019.91;4388052;32;20229;-58
2022/04/26 07:00:01;;;;;;;10.07;8.50;;;;;;;12.85;85.82;95020.66;4352977;32;20233;-57
2022/04/26 07:02:26;;;;;;;12.10;9.30;;;;;;;12.62;87.04;95017.38;4388729;32;20183;-58
2022/04/26 07:04:51;;;;;;;9.03;8.23;;;;;;;12.67;87.21;95014.56;4383297;32;20207;-59
2022/04/26 07:07:17;;;;;;;7.67;7.17;;;;;;;12.74;86.73;95010.31;4372649;32;20232;-60
2022/04/26 07:09:43;;;;;;;7.40;6.90;;;;;;;12.51;85.07;95013.44;4398308;32;20169;-60
2022/04/26 07:12:09;;;;;;;6.57;6.17;;;;;;;12.43;85.31;95009.72;4388857;32;20201;-61
2022/04/26 07:14:36;;;;;;;7.17;6.57;;;;;;;11.96;83.53;95011.34;4388368;32;20192;-60
2022/04/26 07:17:06;;;;;;;7.60;6.87;;;;;;;12.05;84.66;95014.81;4383572;32;20196;-62
2022/04/26 07:19:35;;;;;;;7.63;7.03;;;;;;;11.86;84.80;95011.63;4363591;32;20266;-61
2022/04/26 07:22:03;;;;;;;7.13;6.47;;;;;;;11.80;86.53;95018.19;4385560;32;20230;-61
2022/04/26 07:24:32;;;;;;;6.30;5.80;;;;;;;11.67;85.27;95009.97;4388253;32;20188;-61
2022/04/26 07:27:00;;;;;;;6.30;5.90;;;;;;;11.91;86.08;95014.94;4380163;32;20213;-60
2022/04/26 07:29:27;;;;;;;6.70;6.30;;;;;;;11.91;85.36;95019.47;4381300;32;20198;-60
2022/04/26 07:32:04;;;;;;;6.77;6.27;;;;;;;11.81;85.55;95019.75;4362259;32;20223;-61
2022/04/26 07:34:30;;;;;;;7.00;6.40;;;;;;;11.91;85.39;95022.13;4384532;32;20183;-61
2022/04/26 07:37:04;;;;;;;6.90;6.40;;;;;;;12.07;86.20;95014.47;4390528;32;20279;-58
2022/04/26 07:39:32;;;;;;;5.97;5.57;;;;;;;12.18;85.38;95013.91;4379509;32;20250;-59
2022/04/26 07:41:57;;;;;;;5.50;5.10;;;;;;;12.38;83.42;95013.28;4372922;32;20191;-61
2022/04/26 07:44:22;;;;;;;5.83;5.43;;;;;;;12.40;82.93;95015.66;4383307;32;20199;-58
2022/04/26 07:46:50;;;;;;;5.23;4.93;;;;;;;12.26;84.07;95023.75;4379530;32;20301;-59
2022/04/26 07:49:19;;;;;;;6.17;5.67;;;;;;;12.38;83.84;95023.94;4387616;32;20195;-58
2022/04/26 07:51:45;;;;;;;5.90;5.50;;;;;;;12.41;83.10;95025.19;4388866;32;20259;-58
2022/04/26 07:54:11;;;;;;;5.43;5.13;;;;;;;12.42;83.61;95018.78;4389631;32;20188;-59
2022/04/26 07:56:38;;;;;;;5.10;4.70;;;;;;;12.46;83.38;95024.25;4371790;32;20244;-62
2022/04/26 07:59:07;;;;;;;4.60;4.30;;;;;;;12.39;83.45;95025.50;4384866;32;20207;-61
2022/04/26 08:01:33;;;;;;;4.67;4.37;;;;;;;12.39;81.98;95030.03;4372819;32;20257;-59
2022/04/26 08:03:59;;;;;;;4.53;4.33;;;;;;;12.45;82.77;95033.34;4345934;32;20299;-61
2022/04/26 08:06:26;;;;;;;4.77;4.47;;;;;;;12.34;81.77;95032.84;4388817;32;20179;-60
2022/04/26 08:08:53;;;;;;;22.43;5.60;;;;;;;12.48;81.01;95035.34;4388173;32;20234;-42
2022/04/26 08:11:22;;;;;;;8.27;4.67;;;;;;;14.18;84.00;95034.50;4382742;32;20199;-41
2022/04/26 08:13:48;;;;;;;5.30;4.53;;;;;;;15.37;76.02;95019.78;4350414;32;20196;-41
2022/04/26 08:16:14;;;;;;;7.10;3.57;;;;;;;16.08;71.01;95030.91;4373234;32;20291;-45
2022/04/26 08:18:39;;;;;;;5.20;3.20;;;;;;;16.51;68.09;95029.53;4340306;32;20176;-43
2022/04/26 08:21:09;;;;;;;4.90;3.00;;;;;;;17.04;66.02;95035.69;4382129;32;20217;-42
2022/04/26 08:29:16;;;;;;;6.03;2.80;;;;;;;17.61;62.75;95035.28;4360061;32;20198;-41
2022/04/26 08:31:42;;;;;;;4.73;2.63;;;;;;;17.61;62.14;95039.87;4364378;32;20247;-42
2022/04/26 08:34:09;;;;;;;2.90;2.70;;;;;;;17.62;61.65;95044.91;4387499;32;20181;-41
2022/04/26 08:36:35;;;;;;;2.87;2.63;;;;;;;17.66;61.27;95036.97;4353678;32;20177;-42
2022/04/26 08:39:06;;;;;;;2.50;2.20;;;;;;;17.69;61.56;95041.63;4381571;32;20172;-43
2022/04/26 08:41:34;;;;;;;2.93;2.73;;;;;;;17.61;61.32;95053.28;4382669;32;20187;-41
2022/04/26 08:43:59;;;;;;;3.13;2.80;;;;;;;17.54;61.69;95053.87;4391114;32;20274;-41
2022/04/26 08:52:06;;;;;;;2.63;2.43;;;;;;;17.18;64.36;95052.16;4391979;32;20354;-42
2022/04/26 08:54:34;;;;;;;3.17;2.97;;;;;;;17.09;64.90;95057.62;4366121;32;20207;-43
2022/04/26 08:57:01;;;;;;;2.50;2.30;;;;;;;16.52;65.64;95057.09;4364092;32;20184;-41
2022/04/26 08:59:28;;;;;;;2.43;2.23;;;;;;;16.82;66.44;95053.06;4377864;32;20196;-41
2022/04/26 09:02:22;;;;;;;5.23;3.00;;;;;;;17.22;65.11;95062.97;4371158;32;20184;-42
2022/04/26 09:04:52;;;;;;;2.90;2.70;;;;;;;17.33;65.10;95061.34;4380922;32;20254;-42
2022/04/26 09:07:33;;;;;;;4.83;2.50;;;;;;;17.35;65.03;95061.78;4369376;32;20181;-42
2022/04/26 09:10:17;;;;;;;4.27;2.60;;;;;;;17.35;64.97;95065.25;4383848;32;20274;-42
2022/04/26 09:13:09;;;;;;;3.33;2.13;;;;;;;17.31;64.80;95059.00;4359509;32;20211;-42
2022/04/26 09:15:48;;;;;;;2.63;2.20;;;;;;;17.40;64.47;95064.22;4379246;32;20234;-42
2022/04/26 09:18:30;;;;;;;2.60;2.50;;;;;;;17.61;64.53;95054.06;4415255;32;20242;-59
2022/04/26 09:21:05;;;;;;;3.77;2.70;;;;;;;16.32;67.92;95058.78;4352200;32;20226;-58
2022/04/26 09:23:32;;;;;;;2.40;2.30;;;;;;;15.18;72.52;95064.91;4361243;32;20265;-59
2022/04/26 09:26:14;;;;;;;4.40;2.90;;;;;;;14.19;76.99;95065.44;4356955;32;20279;-58
2022/04/26 09:28:46;;;;;;;3.47;3.17;;;;;;;13.65;79.14;95069.75;4371940;32;20200;-59
2022/04/26 09:31:38;;;;;;;3.50;3.20;;;;;;;13.18;82.06;95061.69;4381646;32;20185;-58
2022/04/26 09:34:14;;;;;;;2.73;2.63;;;;;;;13.08;83.56;95068.09;4384698;32;20192;-58
2022/04/26 09:36:45;;;;;;;3.40;3.00;;;;;;;12.83;82.80;95062.78;4345528;32;20188;-58
2022/04/26 09:39:17;;;;;;;3.03;2.77;;;;;;;12.62;85.59;95065.28;4387674;32;20198;-58
2022/04/26 09:41:49;;;;;;;2.57;2.47;;;;;;;12.69;86.31;95066.38;4383374;32;20192;-58
2022/04/26 09:44:19;;;;;;;3.47;3.17;;;;;;;12.62;87.37;95071.38;4380484;32;20172;-58
2022/04/26 09:46:53;;;;;;;5.07;3.30;;;;;;;12.36;88.13;95079.31;4384402;32;20188;-58
2022/04/26 09:49:21;;;;;;;2.93;2.73;;;;;;;12.21;88.78;95071.78;4373486;32;20185;-59
2022/04/26 09:51:59;;;;;;;2.70;2.60;;;;;;;12.15;89.12;95075.69;4336665;32;20200;-58
2022/04/26 09:54:41;;;;;;;2.97;2.77;;;;;;;12.18;88.23;95085.69;4378194;32;20192;-59
2022/04/26 09:57:12;;;;;;;4.07;2.47;;;;;;;12.09;88.99;95079.56;4380000;32;20188;-58
2022/04/26 09:59:38;;;;;;;2.70;2.60;;;;;;;12.17;89.22;95081.47;4379380;32;20192;-58
2022/04/26 10:02:08;;;;;;;3.73;2.70;;;;;;;12.06;89.95;95085.50;4387367;32;20212;-58
2022/04/26 10:04:45;;;;;;;2.67;2.57;;;;;;;12.19;89.76;95078.50;4390583;32;20263;-59
2022/04/26 10:07:17;;;;;;;3.40;2.97;;;;;;;12.31;89.80;95079.47;4388736;32;20220;-59
2022/04/26 10:09:49;;;;;;;3.10;2.90;;;;;;;11.94;91.85;95082.66;4388872;32;20206;-60
2022/04/26 10:12:16;;;;;;;4.00;3.40;;;;;;;12.12;91.85;95081.59;4374965;32;20257;-58
2022/04/26 10:14:43;;;;;;;3.87;3.47;;;;;;;12.05;91.97;95095.34;4367928;32;20175;-59
2022/04/26 10:17:13;;;;;;;3.67;3.37;;;;;;;11.99;91.26;95083.28;4381578;32;20192;-59
2022/04/26 10:19:43;;;;;;;3.90;3.57;;;;;;;11.93;91.57;95076.53;4370399;32;20173;-59
2022/04/26 10:22:15;;;;;;;6.10;3.73;;;;;;;12.17;92.33;95081.47;4342890;32;20169;-59
2022/04/26 10:25:08;;;;;;;3.50;3.20;;;;;;;12.29;92.83;95079.00;4369162;32;20202;-59
2022/04/26 10:27:35;;;;;;;3.73;3.43;;;;;;;12.31;91.93;95076.03;4338172;32;20184;-58
2022/04/26 10:30:04;;;;;;;3.30;3.00;;;;;;;12.48;90.68;95075.25;4389108;32;20301;-59
2022/04/26 10:32:40;;;;;;;3.33;3.13;;;;;;;12.70;89.55;95083.13;4390698;32;20208;-59
2022/04/26 10:35:26;;;;;;;4.07;3.70;;;;;;;12.50;90.70;95084.50;4375959;32;20187;-59
2022/04/26 10:38:15;;;;;;;3.50;3.30;;;;;;;12.49;92.25;95087.47;4380013;32;20195;-59
2022/04/26 10:41:12;;;;;;;3.33;3.13;;;;;;;12.78;91.18;95079.69;4376907;32;20222;-59
2022/04/26 10:43:38;;;;;;;3.47;3.27;;;;;;;12.69;91.37;95078.88;4381969;32;20247;-59
2022/04/26 10:46:11;;;;;;;3.53;3.20;;;;;;;12.56;90.27;95083.28;4377099;32;20176;-59
2022/04/26 10:48:37;;;;;;;3.80;3.50;;;;;;;12.33;91.86;95085.25;4367038;32;20189;-60
2022/04/26 10:51:32;;;;;;;4.00;3.70;;;;;;;12.14;91.40;95084.75;4388143;32;20176;-59
2022/04/26 10:53:58;;;;;;;5.93;4.30;;;;;;;12.04;92.13;95091.13;4374269;32;20192;-60
2022/04/26 10:56:25;;;;;;;4.83;4.07;;;;;;;12.06;91.74;95090.81;4375720;32;20214;-58
2022/04/26 10:59:00;;;;;;;7.20;5.33;;;;;;;11.91;92.34;95089.34;4373014;32;20188;-58
2022/04/26 11:01:29;;;;;;;5.37;4.83;;;;;;;12.78;91.87;95090.34;4387819;32;20184;-60
2022/04/26 11:04:06;;;;;;;4.33;3.90;;;;;;;13.36;88.90;95095.19;4383213;32;20218;-59
2022/04/26 11:06:42;;;;;;;4.60;4.20;;;;;;;13.47;87.23;95100.22;4392845;32;20192;-56
2022/04/26 11:09:31;;;;;;;4.07;3.77;;;;;;;13.61;86.66;95106.13;4357270;32;20249;-59
2022/04/26 11:11:58;;;;;;;4.13;3.73;;;;;;;13.75;85.55;95112.81;4385604;32;20207;-58
2022/04/26 11:14:27;;;;;;;4.27;3.87;;;;;;;13.74;84.54;95119.25;4389335;32;20222;-60
2022/04/26 11:17:02;;;;;;;2.57;2.47;;;;;;;13.75;84.66;95123.50;4382074;32;20184;-59
2022/04/26 11:19:38;;;;;;;3.33;3.03;;;;;;;13.44;84.08;95130.16;4352379;32;20256;-58
2022/04/26 11:22:09;;;;;;;2.30;2.17;;;;;;;13.48;83.84;95139.09;4383693;32;20192;-58
2022/04/26 11:30:11;;;;;;;2.63;2.43;;;;;;;12.19;83.01;95174.25;4384321;32;20239;-58
2022/04/26 11:32:44;;;;;;;2.00;1.90;;;;;;;11.84;84.84;95182.06;4347739;32;20192;-58
2022/04/26 11:35:11;;;;;;;2.20;2.10;;;;;;;11.63;86.07;95192.37;4370634;32;20188;-59
2022/04/26 11:37:50;;;;;;;2.83;1.80;;;;;;;11.78;87.91;95190.44;4386551;32;20259;-59
2022/04/26 11:40:34;;;;;;;3.87;1.50;;;;;;;11.81;85.50;95197.81;4365235;32;20211;-58
2022/04/26 11:43:12;;;;;;;1.20;1.20;;;;;;;11.86;84.78;95198.47;4368578;32;20208;-57
2022/04/26 11:45:52;;;;;;;1.80;1.70;;;;;;;11.61;83.95;95207.84;4375661;32;20193;-55
2022/04/26 11:48:22;;;;;;;3.67;1.80;;;;;;;11.57;84.79;95222.81;4359866;32;20238;-57
2022/04/26 11:50:49;;;;;;;1.70;1.60;;;;;;;11.58;86.21;95219.06;4375685;32;20283;-58
2022/04/26 11:53:24;;;;;;;1.80;1.67;;;;;;;11.70;85.22;95221.94;4376332;32;20251;-57
2022/04/26 11:56:06;;;;;;;1.70;1.60;;;;;;;11.62;84.89;95235.19;4392666;32;20200;-56
2022/04/26 11:58:33;;;;;;;1.83;1.50;;;;;;;11.18;84.46;95246.53;4342707;32;20224;-57
2022/04/26 12:01:16;;;;;;;2.43;2.30;;;;;;;10.58;86.00;95252.00;4382015;32;23342;-58
2022/04/26 12:03:53;;;;;;;2.30;2.00;;;;;;;10.26;88.83;95255.47;4352266;32;20200;-58
2022/04/26 12:06:34;;;;;;;2.10;1.90;;;;;;;10.20;88.81;95256.66;4388737;32;20193;-59
2022/04/26 12:09:03;;;;;;;2.20;1.80;;;;;;;10.13;89.36;95251.72;4363715;32;20183;-60
2022/04/26 12:11:32;;;;;;;1.73;1.60;;;;;;;9.70;91.67;95261.69;4363967;32;20282;-59
2022/04/26 12:14:08;;;;;;;2.20;1.77;;;;;;;9.64;92.75;95258.31;4379089;32;20223;-58
2022/04/26 12:16:55;;;;;;;1.70;1.63;;;;;;;9.53;93.79;95262.22;4386746;32;20283;-57
2022/04/26 12:19:36;;;;;;;1.90;1.80;;;;;;;9.71;92.94;95276.50;4387597;32;20279;-58
2022/04/26 12:22:03;;;;;;;2.30;2.10;;;;;;;9.93;91.83;95273.25;4397747;32;20388;-56
2022/04/26 12:24:30;;;;;;;2.50;2.30;;;;;;;9.81;91.52;95272.91;4388645;32;20251;-54
2022/04/26 12:26:58;;;;;;;2.77;2.20;;;;;;;9.63;91.18;95272.66;4390503;32;20189;-58
2022/04/26 12:29:29;;;;;;;2.40;2.20;;;;;;;9.82;91.50;95277.13;4389101;32;20180;-57
2022/04/26 12:31:55;;;;;;;3.27;3.07;;;;;;;9.92;92.02;95269.81;4389211;32;20268;-58
2022/04/26 12:34:31;;;;;;;2.37;2.17;;;;;;;9.87;90.94;95277.06;4389265;32;20195;-58
2022/04/26 12:37:15;;;;;;;2.27;2.07;;;;;;;9.48;91.19;95296.72;4389172;32;20268;-58
2022/04/26 12:39:43;;;;;;;2.50;2.07;;;;;;;9.65;91.54;95289.03;4387178;32;20299;-59
2022/04/26 12:42:14;;;;;;;2.67;2.27;;;;;;;9.70;92.16;95282.09;4390655;32;20280;-56
2022/04/26 12:44:58;;;;;;;2.90;2.70;;;;;;;9.84;93.19;95289.00;4389862;32;20343;-59
2022/04/26 12:50:29;;;;;;;2.00;1.90;;;;;;;9.49;94.18;95293.00;4389154;32;20276;-58
2022/04/26 12:52:56;;;;;;;1.77;1.67;;;;;;;9.63;93.47;95293.84;4388980;32;20288;-61
2022/04/26 12:55:37;;;;;;;3.30;2.10;;;;;;;9.38;93.94;95301.34;4388563;32;20287;-58
2022/04/26 12:58:04;;;;;;;3.33;2.13;;;;;;;9.49;93.31;95310.75;4377928;32;20348;-59
2022/04/26 13:00:30;;;;;;;2.03;1.77;;;;;;;9.26;93.16;95310.50;4390500;32;20382;-59
2022/04/26 13:02:58;;;;;;;2.27;2.03;;;;;;;9.37;93.25;95310.34;4390303;32;20302;-59
2022/04/26 13:05:24;;;;;;;2.97;2.27;;;;;;;9.16;93.93;95315.91;4389994;32;20303;-58
2022/04/26 13:07:49;;;;;;;4.00;1.87;;;;;;;9.57;93.95;95316.16;4388166;32;20331;-59
2022/04/26 13:10:16;;;;;;;1.90;1.80;;;;;;;9.39;93.37;95308.22;4389446;32;20188;-61
2022/04/26 13:12:42;;;;;;;2.80;1.77;;;;;;;9.49;93.24;95316.81;4387967;32;20252;-59
2022/04/26 13:15:10;;;;;;;1.43;1.33;;;;;;;9.72;91.95;95301.13;4390160;32;20276;-57
2022/04/26 13:17:39;;;;;;;2.83;1.70;;;;;;;9.30;93.01;95305.44;4389200;32;20219;-57
2022/04/26 13:20:06;;;;;;;2.70;1.50;;;;;;;9.20;92.54;95310.84;4385923;32;20303;-61
2022/04/26 13:22:35;;;;;;;1.63;1.53;;;;;;;9.49;91.73;95314.16;4388000;32;20280;-59
2022/04/26 13:25:03;;;;;;;1.60;1.50;;;;;;;9.43;92.45;95310.00;4392706;32;20279;-59
2022/04/26 13:27:32;;;;;;;1.33;1.33;;;;;;;9.20;92.69;95302.91;4391255;32;20374;-59
2022/04/26 13:29:58;;;;;;;1.80;1.63;;;;;;;9.27;89.93;95308.66;4391566;32;20292;-58
2022/04/26 13:32:24;;;;;;;2.33;1.50;;;;;;;8.92;92.29;95292.16;4391221;32;20300;-59
2022/04/26 13:34:51;;;;;;;1.63;1.30;;;;;;;9.31;91.58;95285.84;4393644;32;20216;-59
2022/04/26 13:37:17;;;;;;;2.20;2.00;;;;;;;9.32;91.26;95282.13;4390605;32;20180;-58
2022/04/26 13:39:45;;;;;;;1.70;1.17;;;;;;;9.41;91.14;95269.00;4393093;32;20361;-59
2022/04/26 13:42:11;;;;;;;2.40;1.40;;;;;;;9.73;90.95;95257.69;4391402;32;20237;-59
2022/04/26 13:44:36;;;;;;;3.40;1.57;;;;;;;10.07;89.86;95258.16;4394559;32;20400;-59
2022/04/26 13:47:04;;;;;;;2.23;1.53;;;;;;;10.37;89.16;95278.09;4391736;32;20279;-58
2022/04/26 13:49:31;;;;;;;1.83;1.50;;;;;;;10.39;88.90;95283.91;4392750;32;20227;-59
2022/04/26 13:51:57;;;;;;;1.50;1.40;;;;;;;10.73;88.09;95294.12;4392110;32;20236;-59
2022/04/26 13:54:23;;;;;;;1.40;1.33;;;;;;;10.68;86.80;95287.06;4390649;32;20198;-59
2022/04/26 13:56:49;;;;;;;1.20;1.20;;;;;;;10.66;87.59;95293.72;4391319;32;20224;-58
2022/04/26 13:59:15;;;;;;;1.00;1.00;;;;;;;10.38;86.33;95286.84;4389515;32;20312;-60
2022/04/26 14:01:41;;;;;;;2.77;1.10;;;;;;;10.54;86.85;95288.94;4396027;32;20207;-58
2022/04/26 14:04:06;;;;;;;1.53;1.00;;;;;;;10.75;87.35;95297.28;4393934;32;20277;-60
2022/04/26 14:06:31;;;;;;;1.73;1.13;;;;;;;10.68;85.68;95302.19;4392429;32;20180;-60
2022/04/26 14:08:57;;;;;;;2.10;1.20;;;;;;;10.64;86.04;95309.94;4392180;32;20215;-60
2022/04/26 14:11:22;;;;;;;1.10;0.90;;;;;;;10.71;85.47;95317.53;4390750;32;20206;-60
2022/04/26 14:21:59;;;;;;;2.30;1.37;;;;;;;10.62;85.84;95345.81;4385015;32;20317;-60
2022/04/26 14:24:25;;;;;;;2.00;1.30;;;;;;;10.59;86.63;95330.50;4384883;32;20197;-60
2022/04/26 14:26:51;;;;;;;1.20;1.10;;;;;;;10.52;85.86;95343.34;4388858;32;20207;-58
2022/04/26 14:29:16;;;;;;;1.40;1.30;;;;;;;10.38;85.59;95342.53;4391442;32;20192;-59
2022/04/26 14:31:42;;;;;;;1.83;1.50;;;;;;;10.46;85.72;95349.81;4388579;32;20227;-59
2022/04/26 14:34:08;;;;;;;1.17;1.17;;;;;;;10.36;85.52;95352.63;4390647;32;20189;-59
2022/04/26 14:36:34;;;;;;;1.67;1.50;;;;;;;10.10;84.49;95349.56;4390530;32;20225;-58
2022/04/26 14:38:59;;;;;;;1.40;1.30;;;;;;;9.80;84.73;95348.16;4391685;32;20268;-59
2022/04/26 14:41:26;;;;;;;3.17;1.67;;;;;;;9.76;86.47;95349.81;4391921;32;20267;-59
2022/04/26 14:43:52;;;;;;;2.10;1.83;;;;;;;9.81;86.15;95363.75;4390209;32;20263;-59
2022/04/26 14:46:17;;;;;;;1.30;1.20;;;;;;;10.05;85.93;95357.59;4391855;32;20188;-60
2022/04/26 14:48:44;;;;;;;1.80;1.70;;;;;;;10.22;85.10;95366.63;4391823;32;20200;-61
2022/04/26 14:51:11;;;;;;;3.87;1.93;;;;;;;9.91;85.32;95373.44;4391711;32;20206;-67
2022/04/26 14:53:36;;;;;;;2.07;1.57;;;;;;;10.16;86.05;95364.31;4388829;32;20204;-58
2022/04/26 14:56:02;;;;;;;3.17;1.87;;;;;;;10.06;85.86;95373.22;4387354;32;20185;-60
2022/04/26 14:58:29;;;;;;;1.57;1.50;;;;;;;10.03;86.72;95373.00;4391120;32;20211;-56
2022/04/26 15:00:54;;;;;;;1.40;1.30;;;;;;;10.14;85.70;95380.53;4390106;32;20189;-58
2022/04/26 15:03:20;;;;;;;1.40;1.40;;;;;;;10.36;85.05;95381.81;4383981;32;20273;-59
2022/04/26 15:05:45;;;;;;;1.87;1.77;;;;;;;10.24;84.65;95377.72;4390365;32;20184;-62
2022/04/26 15:10:55;;;;;;;2.70;1.73;;;;;;;10.30;85.00;95376.56;4390981;32;20229;-55
2022/04/26 15:18:51;;;;;;;4.10;1.87;;;;;;;10.36;84.44;95374.63;4390815;32;20207;-59
2022/04/26 15:21:18;;;;;;;5.43;2.07;;;;;;;10.30;83.88;95381.09;4390543;32;20196;-59
2022/04/26 15:23:44;;;;;;;2.50;2.07;;;;;;;10.27;84.97;95377.16;4389219;32;20188;-60
2022/04/26 15:26:11;;;;;;;2.10;1.87;;;;;;;10.28;84.44;95380.59;4387791;32;20246;-59
2022/04/26 15:28:37;;;;;;;2.40;2.00;;;;;;;10.62;84.21;95381.06;4391030;32;20193;-60
2022/04/26 15:31:06;;;;;;;2.57;2.10;;;;;;;10.71;84.32;95381.19;4385557;32;20192;-59
2022/04/26 15:33:32;;;;;;;3.33;2.30;;;;;;;10.69;83.96;95378.06;4388452;32;20189;-59
2022/04/26 15:35:58;;;;;;;2.30;2.10;;;;;;;10.61;83.46;95376.06;4388465;32;20236;-60
2022/04/26 15:38:27;;;;;;;2.37;2.17;;;;;;;10.63;82.86;95379.22;4387745;32;20215;-61
2022/04/26 15:40:53;;;;;;;2.30;2.20;;;;;;;10.58;84.40;95376.66;4389954;32;20185;-57
2022/04/26 15:43:19;;;;;;;3.63;2.50;;;;;;;10.59;84.28;95378.25;4383807;32;20200;-58
2022/04/26 15:45:45;;;;;;;2.50;2.40;;;;;;;10.45;85.32;95388.00;4370250;32;20285;-60
2022/04/26 15:48:10;;;;;;;2.87;2.67;;;;;;;10.62;84.79;95375.78;4378873;32;20236;-60
2022/04/26 15:50:39;;;;;;;2.90;2.70;;;;;;;10.51;84.98;95379.69;4383117;32;20210;-57
2022/04/26 15:53:04;;;;;;;2.60;2.40;;;;;;;10.53;85.01;95387.34;4380771;32;20212;-59
2022/04/26 15:55:29;;;;;;;3.27;2.97;;;;;;;10.89;83.42;95380.34;4379931;32;20321;-58
2022/04/26 15:57:55;;;;;;;4.40;3.13;;;;;;;10.78;83.70;95378.19;4384858;32;20207;-59
2022/04/26 16:00:20;;;;;;;3.67;3.37;;;;;;;10.81;84.14;95388.97;4387514;32;20247;-59
2022/04/26 16:02:51;;;;;;;3.40;3.20;;;;;;;10.83;84.21;95389.47;4385735;32;20203;-59